createdAt,value
2019-02-14T00:00:50.960Z,40.07
2019-02-14T00:03:19.808Z,36.67
2019-02-14T00:05:48.651Z,39.67
2019-02-14T00:08:17.504Z,37.20
2019-02-14T00:10:46.504Z,38.83
2019-02-14T00:14:02.931Z,38.90
2019-02-14T00:16:31.760Z,37.90
2019-02-14T00:19:00.639Z,35.53
2019-02-14T00:21:29.515Z,35.87
2019-02-14T00:23:58.360Z,37.90
2019-02-14T00:26:27.441Z,35.90
2019-02-14T00:28:57.239Z,37.57
2019-02-14T00:31:26.125Z,34.80
2019-02-14T00:33:54.956Z,35.60
2019-02-14T00:36:23.858Z,35.53
2019-02-14T00:45:49.200Z,34.47
2019-02-14T00:48:18.047Z,34.77
2019-02-14T00:50:47.108Z,35.10
2019-02-14T00:56:47.903Z,32.30
2019-02-14T00:59:16.749Z,32.77
2019-02-14T01:01:46.118Z,31.20
2019-02-14T01:04:15.019Z,32.93
2019-02-14T01:06:44.046Z,33.30
2019-02-14T01:09:13.320Z,32.67
2019-02-14T01:11:42.216Z,33.47
2019-02-14T01:14:11.525Z,31.27
2019-02-14T01:19:46.380Z,29.80
2019-02-14T01:22:16.130Z,29.50
2019-02-14T01:24:45.255Z,30.10
2019-02-14T01:27:14.569Z,28.80
2019-02-14T01:29:48.199Z,32.23
2019-02-14T01:32:17.045Z,28.87
2019-02-14T01:34:45.977Z,29.20
2019-02-14T01:37:14.841Z,27.53
2019-02-14T01:39:43.657Z,31.50
2019-02-14T01:42:12.615Z,30.70
2019-02-14T01:44:41.762Z,29.00
2019-02-14T01:47:10.609Z,29.63
2019-02-14T01:49:39.459Z,29.30
2019-02-14T01:52:08.529Z,30.53
2019-02-14T01:54:37.431Z,28.63
2019-02-14T01:57:06.419Z,28.27
2019-02-14T01:59:35.319Z,28.47
2019-02-14T02:02:05.044Z,29.07
2019-02-14T02:04:33.903Z,27.20
2019-02-14T02:07:02.925Z,28.23
2019-02-14T02:09:33.369Z,27.47
2019-02-14T02:12:02.338Z,26.00
2019-02-14T02:14:31.489Z,26.30
2019-02-14T02:17:00.329Z,26.13
2019-02-14T02:19:29.189Z,24.37
2019-02-14T02:21:58.032Z,25.67
2019-02-14T02:24:26.821Z,25.30
2019-02-14T02:26:55.716Z,24.60
2019-02-14T02:29:24.585Z,24.63
2019-02-14T02:31:53.623Z,26.20
2019-02-14T02:34:22.511Z,26.10
2019-02-14T02:36:51.386Z,24.00
2019-02-14T02:39:20.378Z,25.47
2019-02-14T02:41:49.498Z,26.43
2019-02-14T02:44:18.380Z,23.20
2019-02-14T02:46:47.291Z,22.50
2019-02-14T02:49:16.157Z,24.20
2019-02-14T02:51:45.073Z,23.10
2019-02-14T02:54:14.067Z,23.27
2019-02-14T02:56:42.984Z,21.87
2019-02-14T02:59:11.824Z,22.37
2019-02-14T03:01:40.626Z,21.33
2019-02-14T03:04:09.555Z,20.10
2019-02-14T03:06:38.382Z,22.10
2019-02-14T03:09:07.284Z,18.53
2019-02-14T03:11:36.132Z,19.53
2019-02-14T03:14:05.184Z,19.00
2019-02-14T03:16:34.236Z,20.00
2019-02-14T03:19:03.106Z,19.90
2019-02-14T03:21:32.086Z,20.13
2019-02-14T03:24:00.926Z,18.97
2019-02-14T03:26:29.726Z,19.87
2019-02-14T03:28:58.561Z,18.30
2019-02-14T03:31:27.412Z,19.07
2019-02-14T03:33:56.220Z,19.67
2019-02-14T03:36:25.184Z,18.13
2019-02-14T03:38:54.061Z,19.67
2019-02-14T03:41:22.848Z,18.60
2019-02-14T03:43:51.654Z,18.60
2019-02-14T03:46:20.668Z,18.20
2019-02-14T03:48:49.542Z,17.23
2019-02-14T03:51:18.448Z,17.93
2019-02-14T03:53:47.242Z,17.33
2019-02-14T03:56:16.083Z,17.37
2019-02-14T03:58:44.965Z,16.07
2019-02-14T04:01:13.748Z,17.63
2019-02-14T04:03:42.661Z,17.77
2019-02-14T04:06:11.610Z,16.83
2019-02-14T04:08:40.516Z,16.33
2019-02-14T04:11:09.404Z,17.50
2019-02-14T04:13:38.250Z,16.93
2019-02-14T04:16:07.188Z,15.57
2019-02-14T04:18:36.056Z,16.57
2019-02-14T04:21:05.007Z,17.30
2019-02-14T04:23:33.928Z,16.23
2019-02-14T04:26:03.245Z,16.63
2019-02-14T04:28:32.415Z,15.93
2019-02-14T04:31:01.185Z,15.87
2019-02-14T04:33:30.052Z,16.80
2019-02-14T04:35:58.851Z,16.60
2019-02-14T04:38:27.690Z,16.13
2019-02-14T04:40:56.680Z,16.43
2019-02-14T04:43:25.585Z,16.90
2019-02-14T04:45:54.427Z,16.40
2019-02-14T04:48:23.288Z,15.80
2019-02-14T04:50:52.160Z,15.10
2019-02-14T04:53:21.071Z,16.67
2019-02-14T04:55:50.019Z,15.03
2019-02-14T04:58:18.874Z,14.93
2019-02-14T05:00:47.673Z,14.90
2019-02-14T05:03:16.529Z,15.40
2019-02-14T05:05:45.338Z,15.13
2019-02-14T05:08:14.271Z,15.40
2019-02-14T05:10:43.071Z,14.63
2019-02-14T05:13:11.923Z,15.07
2019-02-14T05:15:40.825Z,14.70
2019-02-14T05:18:09.637Z,14.93
2019-02-14T05:20:38.565Z,16.17
2019-02-14T05:23:07.455Z,16.50
2019-02-14T05:25:36.251Z,15.17
2019-02-14T05:28:05.201Z,15.33
2019-02-14T05:30:34.298Z,16.60
2019-02-14T05:33:03.121Z,16.00
2019-02-14T05:35:31.988Z,16.40
2019-02-14T05:38:00.917Z,17.00
2019-02-14T05:40:29.746Z,16.10
2019-02-14T05:42:58.636Z,15.70
2019-02-14T05:45:27.525Z,14.90
2019-02-14T05:47:56.415Z,14.57
2019-02-14T05:50:25.309Z,16.80
2019-02-14T05:52:54.190Z,16.63
2019-02-14T05:55:23.020Z,15.27
2019-02-14T05:57:52.037Z,15.87
2019-02-14T06:00:20.995Z,15.17
2019-02-14T06:02:49.848Z,15.93
2019-02-14T06:05:18.751Z,15.50
2019-02-14T06:07:47.541Z,16.27
2019-02-14T06:10:16.537Z,14.97
2019-02-14T06:12:45.377Z,17.30
2019-02-14T06:15:14.475Z,17.50
2019-02-14T06:17:43.467Z,16.23
2019-02-14T06:20:12.478Z,17.50
2019-02-14T06:22:41.395Z,16.53
2019-02-14T06:25:10.283Z,16.60
2019-02-14T06:27:39.335Z,16.70
2019-02-14T06:30:10.197Z,15.60
2019-02-14T06:32:39.004Z,17.30
2019-02-14T06:35:08.645Z,16.20
2019-02-14T06:37:37.527Z,16.40
2019-02-14T06:40:07.684Z,16.37
2019-02-14T06:42:36.478Z,18.60
2019-02-14T06:45:06.225Z,16.53
2019-02-14T06:47:35.048Z,17.33
2019-02-14T06:50:04.042Z,17.63
2019-02-14T06:52:32.910Z,17.43
2019-02-14T06:55:01.793Z,15.70
2019-02-14T06:57:30.694Z,16.90
2019-02-14T06:59:59.588Z,17.27
2019-02-14T07:02:28.417Z,16.50
2019-02-14T07:04:57.315Z,16.20
2019-02-14T07:07:26.114Z,15.70
2019-02-14T07:09:55.072Z,16.77
2019-02-14T07:12:24.158Z,15.00
2019-02-14T07:14:52.998Z,16.53
2019-02-14T07:17:21.846Z,15.93
2019-02-14T07:19:50.660Z,17.53
2019-02-14T07:22:19.513Z,15.80
2019-02-14T07:24:48.384Z,16.30
2019-02-14T07:27:17.311Z,16.53
2019-02-14T07:29:46.164Z,16.07
2019-02-14T07:32:15.038Z,16.80
2019-02-14T07:34:44.059Z,16.37
2019-02-14T07:37:13.026Z,16.90
2019-02-14T07:39:42.162Z,17.27
2019-02-14T07:42:11.125Z,15.17
2019-02-14T07:44:40.016Z,15.70
2019-02-14T07:47:08.887Z,16.33
2019-02-14T07:49:37.768Z,16.27
2019-02-14T07:52:06.616Z,15.83
2019-02-14T07:54:35.578Z,16.10
2019-02-14T07:57:04.465Z,15.83
2019-02-14T07:59:33.382Z,16.33
2019-02-14T08:02:02.215Z,16.43
2019-02-14T08:04:31.139Z,16.43
2019-02-14T08:07:00.028Z,16.30
2019-02-14T08:09:28.922Z,15.97
2019-02-14T08:11:57.732Z,16.90
2019-02-14T08:14:26.724Z,16.60
2019-02-14T08:16:55.838Z,16.90
2019-02-14T08:19:24.774Z,17.17
2019-02-14T08:21:53.702Z,16.73
2019-02-14T08:24:22.612Z,16.93
2019-02-14T08:26:51.414Z,16.80
2019-02-14T08:29:20.357Z,17.97
2019-02-14T08:31:49.264Z,16.50
2019-02-14T08:34:18.124Z,16.00
2019-02-14T08:36:47.020Z,16.60
2019-02-14T08:39:15.836Z,16.60
2019-02-14T08:41:47.469Z,17.53
2019-02-14T08:44:16.456Z,17.10
2019-02-14T08:46:45.280Z,16.67
2019-02-14T08:49:14.112Z,17.00
2019-02-14T08:51:43.059Z,18.97
2019-02-14T08:54:11.893Z,17.40
2019-02-14T08:56:40.856Z,18.47
2019-02-14T08:59:09.682Z,17.00
2019-02-14T09:01:42.075Z,17.37
2019-02-14T09:04:11.013Z,16.53
2019-02-14T09:06:40.534Z,17.90
2019-02-14T09:09:09.523Z,17.37
2019-02-14T09:11:38.362Z,17.07
2019-02-14T09:14:07.180Z,17.30
2019-02-14T09:16:36.093Z,17.40
2019-02-14T09:19:05.234Z,16.03
2019-02-14T09:21:34.244Z,16.80
2019-02-14T09:24:03.227Z,17.67
2019-02-14T09:26:32.161Z,16.30
2019-02-14T09:29:00.987Z,18.40
2019-02-14T09:31:29.912Z,16.17
2019-02-14T09:33:58.754Z,16.17
2019-02-14T09:36:27.777Z,16.80
2019-02-14T09:38:56.787Z,15.50
2019-02-14T09:41:25.613Z,17.30
2019-02-14T09:43:54.480Z,16.83
2019-02-14T09:46:23.375Z,17.07
2019-02-14T09:48:52.374Z,16.53
2019-02-14T09:51:21.233Z,15.40
2019-02-14T09:53:50.152Z,14.70
2019-02-14T09:56:18.983Z,17.30
2019-02-14T09:58:47.853Z,16.50
2019-02-14T10:01:16.870Z,18.87
2019-02-14T10:03:47.032Z,17.10
2019-02-14T10:06:15.958Z,16.37
2019-02-14T10:08:44.877Z,16.40
2019-02-14T10:11:13.727Z,15.90
2019-02-14T10:13:42.589Z,15.27
2019-02-14T10:16:11.471Z,16.00
2019-02-14T10:18:40.291Z,15.30
2019-02-14T10:21:09.144Z,15.63
2019-02-14T10:23:38.330Z,14.67
2019-02-14T10:26:07.219Z,14.20
2019-02-14T10:28:36.180Z,13.20
2019-02-14T10:31:05.139Z,12.80
2019-02-14T10:33:34.121Z,12.93
2019-02-14T10:36:04.501Z,13.30
2019-02-14T10:38:33.531Z,14.40
2019-02-14T10:41:02.590Z,13.00
2019-02-14T10:43:31.431Z,12.57
2019-02-14T10:46:00.283Z,11.60
2019-02-14T10:48:29.236Z,13.70
2019-02-14T10:50:58.091Z,11.90
2019-02-14T10:53:27.017Z,14.17
2019-02-14T10:55:56.000Z,13.63
2019-02-14T10:58:25.004Z,12.83
2019-02-14T11:00:53.858Z,12.60
2019-02-14T11:03:22.957Z,13.50
2019-02-14T11:05:51.893Z,12.40
2019-02-14T11:08:20.859Z,13.30
2019-02-14T11:10:49.863Z,13.47
2019-02-14T11:13:18.703Z,14.57
2019-02-14T11:15:47.659Z,13.03
2019-02-14T11:18:16.627Z,13.70
2019-02-14T11:20:45.502Z,14.60
2019-02-14T11:23:14.426Z,15.17
2019-02-14T11:25:43.232Z,15.00
2019-02-14T11:28:12.057Z,16.50
2019-02-14T11:30:41.023Z,16.10
2019-02-14T11:33:09.844Z,16.43
2019-02-14T11:35:38.701Z,16.83
2019-02-14T11:38:07.654Z,17.50
2019-02-14T11:40:36.594Z,16.60
2019-02-14T11:43:05.520Z,16.90
2019-02-14T11:45:34.420Z,16.17
2019-02-14T11:48:03.370Z,14.90
2019-02-14T11:50:32.214Z,17.40
2019-02-14T11:53:01.074Z,16.10
2019-02-14T11:55:29.971Z,16.77
2019-02-14T11:57:58.902Z,15.50
2019-02-14T12:00:27.862Z,17.00
2019-02-14T12:02:56.787Z,18.03
2019-02-14T12:05:25.708Z,17.10
2019-02-14T12:07:54.764Z,17.50
2019-02-14T12:10:23.724Z,17.53
2019-02-14T12:12:52.624Z,15.50
2019-02-14T12:15:23.240Z,16.87
2019-02-14T12:17:52.348Z,16.60
2019-02-14T12:20:21.204Z,18.53
2019-02-14T12:22:50.086Z,17.67
2019-02-14T12:25:19.084Z,17.20
2019-02-14T12:27:48.115Z,16.77
2019-02-14T12:30:17.112Z,17.13
2019-02-14T12:32:46.040Z,17.03
2019-02-14T12:35:14.962Z,18.00
2019-02-14T12:37:43.887Z,18.30
2019-02-14T12:40:12.782Z,18.10
2019-02-14T12:42:41.630Z,15.70
2019-02-14T12:45:20.288Z,18.27
2019-02-14T12:47:42.595Z,16.53
2019-02-14T12:50:11.550Z,15.97
2019-02-14T12:52:40.385Z,15.07
2019-02-14T12:55:09.368Z,16.17
2019-02-14T12:57:38.313Z,15.53
2019-02-14T13:00:10.538Z,16.37
2019-02-14T13:02:39.356Z,13.77
2019-02-14T13:05:08.647Z,15.83
2019-02-14T13:07:37.509Z,15.50
2019-02-14T13:10:06.940Z,14.60
2019-02-14T13:12:35.868Z,13.97
2019-02-14T13:15:05.700Z,14.30
2019-02-14T13:17:34.570Z,14.03
2019-02-14T13:20:03.411Z,14.53
2019-02-14T13:22:32.213Z,14.40
2019-02-14T13:25:01.062Z,14.50
2019-02-14T13:27:30.077Z,14.07
2019-02-14T13:29:59.074Z,15.20
2019-02-14T13:32:27.915Z,14.70
2019-02-14T13:34:56.909Z,14.40
2019-02-14T13:37:25.767Z,14.00
2019-02-14T13:39:54.700Z,13.00
2019-02-14T13:42:23.765Z,14.63
2019-02-14T13:44:52.703Z,15.20
2019-02-14T13:47:21.750Z,15.80
2019-02-14T13:49:50.641Z,14.27
2019-02-14T13:52:19.570Z,14.60
2019-02-14T13:54:48.457Z,13.90
2019-02-14T13:57:17.242Z,14.57
2019-02-14T13:59:46.168Z,14.00
2019-02-14T14:02:14.991Z,14.20
2019-02-14T14:04:44.856Z,13.23
2019-02-14T14:07:13.837Z,13.60
2019-02-14T14:09:42.691Z,14.90
2019-02-14T14:12:11.710Z,13.97
2019-02-14T14:14:40.675Z,13.30
2019-02-14T14:17:09.469Z,13.83
2019-02-14T14:19:38.361Z,14.23
2019-02-14T14:22:07.236Z,14.93
2019-02-14T14:24:36.201Z,13.63
2019-02-14T14:27:05.072Z,13.47
2019-02-14T14:29:33.967Z,13.17
2019-02-14T14:32:02.829Z,13.00
2019-02-14T14:34:31.740Z,12.60
2019-02-14T14:37:00.609Z,13.33
2019-02-14T14:39:29.633Z,13.70
2019-02-14T14:41:58.539Z,13.83
2019-02-14T14:44:32.709Z,14.30
2019-02-14T14:47:04.948Z,13.10
2019-02-14T14:49:33.821Z,13.60
2019-02-14T14:52:02.744Z,12.60
2019-02-14T14:54:31.697Z,13.60
2019-02-14T14:57:00.627Z,12.70
2019-02-14T14:59:29.602Z,13.73
2019-02-14T15:01:58.434Z,13.73
2019-02-14T15:04:27.296Z,13.47
2019-02-14T15:06:56.166Z,12.70
2019-02-14T15:09:25.169Z,12.40
2019-02-14T15:11:54.335Z,13.40
2019-02-14T15:14:23.249Z,13.30
2019-02-14T15:16:52.209Z,12.10
2019-02-14T15:19:21.156Z,12.63
2019-02-14T15:21:50.097Z,12.03
2019-02-14T15:24:18.912Z,12.73
2019-02-14T15:26:47.866Z,12.77
2019-02-14T15:29:16.686Z,12.17
2019-02-14T15:31:45.657Z,11.87
2019-02-14T15:34:14.647Z,12.90
2019-02-14T15:36:43.602Z,12.33
2019-02-14T15:39:12.468Z,12.10
2019-02-14T15:41:41.496Z,11.70
2019-02-14T15:44:10.370Z,12.23
2019-02-14T15:46:39.270Z,13.37
2019-02-14T15:49:08.317Z,13.17
2019-02-14T15:51:37.272Z,13.73
2019-02-14T15:54:07.478Z,12.90
2019-02-14T15:56:36.961Z,11.60
2019-02-14T15:59:05.812Z,12.60
2019-02-14T16:01:34.742Z,13.30
2019-02-14T16:04:04.971Z,12.10
2019-02-14T16:06:34.198Z,12.67
2019-02-14T16:09:03.118Z,12.90
2019-02-14T16:11:33.857Z,12.10
2019-02-14T16:14:02.655Z,12.53
2019-02-14T16:16:31.469Z,12.17
2019-02-14T16:19:00.396Z,11.80
2019-02-14T16:21:29.840Z,11.67
2019-02-14T16:24:00.270Z,12.80
2019-02-14T16:26:29.327Z,13.10
2019-02-14T16:28:59.846Z,13.30
2019-02-14T16:31:29.002Z,11.90
2019-02-14T16:33:58.132Z,13.07
2019-02-14T16:36:27.126Z,11.50
2019-02-14T16:38:56.590Z,12.00
2019-02-14T16:41:26.857Z,11.57
2019-02-14T16:43:55.740Z,13.30
2019-02-14T16:46:24.633Z,12.73
2019-02-14T16:48:53.428Z,12.90
2019-02-14T16:51:22.283Z,14.47
2019-02-14T16:53:51.166Z,11.83
2019-02-14T16:56:20.098Z,12.90
2019-02-14T16:58:48.998Z,12.77
2019-02-14T17:01:17.959Z,12.93
2019-02-14T17:03:46.996Z,12.80
2019-02-14T17:06:15.881Z,12.57
2019-02-14T17:08:44.755Z,12.70
2019-02-14T17:11:13.607Z,13.67
2019-02-14T17:13:42.913Z,12.60
2019-02-14T17:16:11.881Z,13.30
2019-02-14T17:18:40.890Z,14.27
2019-02-14T17:21:09.769Z,14.73
2019-02-14T17:23:38.699Z,12.40
2019-02-14T17:26:07.585Z,13.50
2019-02-14T17:28:36.458Z,12.67
2019-02-14T17:31:05.273Z,12.97
2019-02-14T17:33:34.237Z,14.20
2019-02-14T17:36:03.107Z,13.90
2019-02-14T17:38:31.976Z,13.77
2019-02-14T17:41:00.959Z,14.00
2019-02-14T17:43:29.805Z,14.20
2019-02-14T17:45:58.793Z,11.97
2019-02-14T17:48:27.792Z,11.97
2019-02-14T17:50:56.701Z,13.10
2019-02-14T17:53:25.619Z,14.27
2019-02-14T17:55:54.415Z,13.20
2019-02-14T17:58:23.360Z,13.40
2019-02-14T18:00:52.365Z,13.77
2019-02-14T18:03:21.359Z,14.33
2019-02-14T18:05:50.354Z,12.70
2019-02-14T18:08:19.279Z,13.60
2019-02-14T18:10:54.720Z,13.37
2019-02-14T18:13:18.692Z,12.70
2019-02-14T18:15:47.543Z,12.20
2019-02-14T18:18:16.460Z,13.57
2019-02-14T18:20:45.273Z,14.93
2019-02-14T18:23:14.237Z,13.97
2019-02-14T18:25:43.327Z,12.73
2019-02-14T18:28:12.379Z,15.30
2019-02-14T18:30:41.198Z,15.00
2019-02-14T18:33:10.269Z,12.83
2019-02-14T18:35:39.261Z,13.83
2019-02-14T18:38:08.251Z,14.20
2019-02-14T18:40:37.179Z,13.50
2019-02-14T18:43:06.031Z,13.90
2019-02-14T18:45:34.901Z,13.33
2019-02-14T18:48:03.745Z,12.80
2019-02-14T18:50:32.565Z,13.67
2019-02-14T18:53:01.473Z,13.03
2019-02-14T18:55:30.420Z,16.87
2019-02-14T18:57:59.519Z,17.53
2019-02-14T19:00:28.448Z,15.80
2019-02-14T19:02:57.547Z,13.50
2019-02-14T19:05:26.420Z,13.30
2019-02-14T19:07:55.369Z,12.63
2019-02-14T19:10:24.334Z,13.60
2019-02-14T19:12:53.257Z,12.23
2019-02-14T19:15:22.339Z,13.43
2019-02-14T19:17:51.245Z,12.43
2019-02-14T19:20:20.243Z,11.30
2019-02-14T19:22:49.393Z,12.50
2019-02-14T19:25:18.651Z,11.83
2019-02-14T19:27:47.644Z,12.00
2019-02-14T19:30:16.734Z,10.93
2019-02-14T19:32:45.630Z,13.00
2019-02-14T19:35:22.786Z,12.20
2019-02-14T19:37:45.273Z,12.63
2019-02-14T19:40:14.220Z,11.27
2019-02-14T19:42:43.185Z,11.80
2019-02-14T19:45:12.320Z,11.90
2019-02-14T19:47:41.332Z,11.40
2019-02-14T19:50:10.541Z,13.50
2019-02-14T19:52:39.568Z,11.90
2019-02-14T19:55:08.855Z,12.43
2019-02-14T19:57:37.830Z,13.23
2019-02-14T20:00:08.464Z,11.57
2019-02-14T20:02:39.857Z,12.47
2019-02-14T20:05:09.478Z,12.83
2019-02-14T20:07:38.407Z,13.00
2019-02-14T20:10:08.724Z,11.97
2019-02-14T20:12:37.586Z,12.33
2019-02-14T20:15:08.587Z,12.13
2019-02-14T20:17:37.458Z,12.40
2019-02-14T20:20:07.666Z,11.70
2019-02-14T20:22:36.682Z,12.70
2019-02-14T20:25:05.861Z,12.30
2019-02-14T20:27:34.825Z,12.83
2019-02-14T20:30:04.202Z,11.50
2019-02-14T20:32:33.229Z,11.17
2019-02-14T20:35:02.195Z,12.43
2019-02-14T20:37:31.153Z,11.80
2019-02-14T20:40:00.306Z,12.07
2019-02-14T20:42:29.284Z,11.87
2019-02-14T20:45:00.785Z,11.00
2019-02-14T20:47:29.798Z,11.47
2019-02-14T20:49:58.782Z,11.00
2019-02-14T20:52:27.798Z,11.10
2019-02-14T20:54:56.958Z,10.00
2019-02-14T20:57:25.945Z,10.00
2019-02-14T20:59:55.026Z,10.57
2019-02-14T21:02:24.134Z,10.80
2019-02-14T21:04:53.084Z,9.83
2019-02-14T21:07:22.165Z,13.70
2019-02-14T21:09:51.227Z,12.20
2019-02-14T21:12:20.204Z,11.63
2019-02-14T21:14:49.147Z,10.70
2019-02-14T21:17:18.150Z,9.90
2019-02-14T21:19:47.096Z,8.80
2019-02-14T21:22:18.549Z,8.90
2019-02-14T21:24:47.473Z,9.50
2019-02-14T21:27:16.474Z,10.10
2019-02-14T21:29:45.420Z,9.80
2019-02-14T21:32:14.301Z,9.57
2019-02-14T21:34:43.247Z,9.47
2019-02-14T21:37:13.999Z,8.67
2019-02-14T21:39:42.953Z,9.30
2019-02-14T21:42:20.525Z,8.83
2019-02-14T21:44:42.627Z,8.67
2019-02-14T21:47:11.587Z,8.53
2019-02-14T21:49:40.467Z,8.40
2019-02-14T21:52:09.439Z,8.20
2019-02-14T21:54:38.583Z,8.83
2019-02-14T21:57:07.703Z,7.47
2019-02-14T21:59:36.619Z,8.33
2019-02-14T22:02:06.707Z,8.23
2019-02-14T22:04:35.839Z,8.90
2019-02-14T22:07:05.120Z,9.47
2019-02-14T22:09:34.070Z,8.20
2019-02-14T22:12:03.092Z,9.70
2019-02-14T22:14:32.080Z,8.70
2019-02-14T22:17:01.037Z,9.57
2019-02-14T22:19:30.763Z,9.07
2019-02-14T22:22:00.313Z,9.00
2019-02-14T22:24:29.343Z,10.03
2019-02-14T22:26:58.208Z,8.97
2019-02-14T22:29:27.276Z,9.20
2019-02-14T22:31:56.175Z,8.80
2019-02-14T22:34:25.043Z,8.93
2019-02-14T22:36:54.197Z,10.13
2019-02-14T22:39:23.093Z,8.77
2019-02-14T22:41:52.016Z,9.47
2019-02-14T22:44:20.933Z,8.90
2019-02-14T22:46:49.819Z,8.73
2019-02-14T22:49:18.663Z,8.90
2019-02-14T22:51:47.539Z,8.43
2019-02-14T22:54:16.507Z,8.50
2019-02-14T22:56:45.524Z,9.03
2019-02-14T22:59:14.360Z,8.07
2019-02-14T23:01:45.179Z,8.83
2019-02-14T23:04:14.186Z,8.57
2019-02-14T23:06:43.100Z,8.13
2019-02-14T23:09:12.059Z,8.80
2019-02-14T23:11:41.131Z,8.43
2019-02-14T23:14:10.865Z,8.90
2019-02-14T23:16:39.775Z,8.60
2019-02-14T23:19:08.681Z,9.73
2019-02-14T23:21:37.506Z,8.93
2019-02-14T23:24:06.439Z,9.23
2019-02-14T23:26:35.391Z,8.03
2019-02-14T23:29:04.355Z,8.70
2019-02-14T23:31:33.181Z,8.63
2019-02-14T23:34:01.987Z,9.47
2019-02-14T23:36:30.755Z,8.60
2019-02-14T23:38:59.717Z,8.63
2019-02-14T23:41:28.518Z,8.77
2019-02-14T23:43:57.401Z,8.50
2019-02-14T23:46:26.245Z,9.10
2019-02-14T23:48:55.115Z,8.17
2019-02-14T23:51:23.971Z,8.80
2019-02-14T23:53:52.866Z,7.70
2019-02-14T23:56:21.715Z,8.77
2019-02-14T23:58:50.605Z,8.83
